Time;durP1;ratioP1;P1;durP2;ratioP2;P2;SDS_P1;SDS_P2;PMS_P1;PMS_P2;Temp;Humidity;BMP_temperature;BMP_pressure;BME280_temperature;BME280_humidity;BME280_pressure;Samples;Min_cycle;Max_cycle;Signal;HPM_P1;HPM_P2
2022/08/04 00:00:28;;;;;;;2.50;2.30;;;;;;;21.82;67.38;97944.13;5060459;28;20222;-68
2022/08/04 00:03:13;;;;;;;2.60;2.40;;;;;;;21.82;66.81;97938.72;5063262;28;20215;-68
2022/08/04 00:06:05;;;;;;;2.60;2.40;;;;;;;21.80;67.00;97937.25;5061473;28;20219;-69
2022/08/04 00:08:40;;;;;;;3.57;2.70;;;;;;;21.73;67.70;97931.75;5061086;28;20216;-69
2022/08/04 00:11:10;;;;;;;3.00;2.70;;;;;;;21.66;67.77;97933.47;5063892;28;20211;-68
2022/08/04 00:13:39;;;;;;;3.07;2.77;;;;;;;21.60;68.62;97934.19;5060708;28;20303;-68
2022/08/04 00:16:08;;;;;;;2.60;2.40;;;;;;;21.60;68.74;97936.88;5060282;28;20215;-69
2022/08/04 00:18:40;;;;;;;2.93;2.63;;;;;;;21.61;69.04;97938.53;5061654;28;20680;-69
2022/08/04 00:21:11;;;;;;;3.03;2.73;;;;;;;21.59;69.29;97932.47;5063480;28;20742;-69
2022/08/04 00:23:39;;;;;;;3.87;3.07;;;;;;;21.52;70.04;97942.28;5060452;28;20220;-69
2022/08/04 00:26:08;;;;;;;3.20;2.90;;;;;;;21.46;70.43;97934.94;5060102;28;20209;-69
2022/08/04 00:28:37;;;;;;;2.83;2.63;;;;;;;21.37;71.06;97936.00;5051322;28;20294;-69
2022/08/04 00:31:04;;;;;;;4.40;2.90;;;;;;;21.27;71.20;97938.09;5062773;28;20587;-69
2022/08/04 00:33:31;;;;;;;3.00;2.80;;;;;;;21.18;71.89;97941.84;5060012;28;20677;-69
2022/08/04 00:35:59;;;;;;;3.33;2.60;;;;;;;21.11;72.85;97945.41;5059792;28;20212;-69
2022/08/04 00:38:27;;;;;;;3.00;2.77;;;;;;;21.02;73.65;97936.53;5062893;28;20219;-69
2022/08/04 00:41:03;;;;;;;3.77;2.93;;;;;;;20.93;74.35;97940.31;5059992;28;20231;-68
2022/08/04 00:43:32;;;;;;;2.80;2.60;;;;;;;20.88;74.77;97939.13;5060079;28;20215;-69
2022/08/04 00:46:46;;;;;;;3.10;2.80;;;;;;;20.82;74.63;97934.41;5059705;28;20247;-69
2022/08/04 00:49:43;;;;;;;3.97;2.80;;;;;;;20.73;74.99;97938.97;5051912;28;20674;-69
2022/08/04 00:52:26;;;;;;;2.83;2.63;;;;;;;20.71;75.56;97942.84;5049626;28;20212;-67
2022/08/04 00:55:06;;;;;;;3.30;2.50;;;;;;;20.66;75.64;97937.19;5060566;28;20689;-68
2022/08/04 00:57:49;;;;;;;3.00;2.70;;;;;;;20.60;75.81;97938.69;5059844;28;20269;-68
2022/08/04 01:00:16;;;;;;;2.53;2.33;;;;;;;20.57;75.42;97939.06;5046957;28;20227;-70
2022/08/04 01:02:56;;;;;;;2.70;2.50;;;;;;;20.59;74.73;97944.22;5057824;28;20240;-68
2022/08/04 01:05:30;;;;;;;3.23;2.43;;;;;;;20.58;74.98;97938.03;5058025;28;20219;-68
2022/08/04 01:08:19;;;;;;;2.87;2.50;;;;;;;20.57;74.86;97940.91;5051776;28;20568;-68
2022/08/04 01:10:59;;;;;;;2.67;2.47;;;;;;;20.56;74.82;97945.44;5049014;28;20222;-68
2022/08/04 01:14:00;;;;;;;2.70;2.47;;;;;;;20.59;74.93;97944.22;5058580;28;20218;-68
2022/08/04 01:16:27;;;;;;;2.47;2.27;;;;;;;20.62;74.23;97944.75;5061181;28;20218;-69
2022/08/04 01:19:00;;;;;;;2.60;2.40;;;;;;;20.64;73.95;97937.34;5059831;28;20212;-68
2022/08/04 01:22:12;;;;;;;2.77;2.50;;;;;;;20.62;74.11;97939.38;5061572;28;20266;-68
2022/08/04 01:25:13;;;;;;;2.50;2.30;;;;;;;20.62;73.96;97944.75;5052391;28;20212;-68
2022/08/04 01:27:59;;;;;;;2.50;2.30;;;;;;;20.65;73.92;97939.03;5043700;28;20236;-69
2022/08/04 01:30:27;;;;;;;2.90;2.60;;;;;;;20.66;73.88;97932.63;5054829;28;20208;-68
2022/08/04 01:33:03;;;;;;;2.73;2.53;;;;;;;20.65;74.17;97928.28;5063378;28;20219;-68
2022/08/04 01:35:36;;;;;;;3.00;2.70;;;;;;;20.71;73.84;97927.59;5053766;28;20232;-68
2022/08/04 01:38:13;;;;;;;3.30;2.60;;;;;;;20.71;74.20;97932.09;5063164;28;20211;-68
2022/08/04 01:40:42;;;;;;;2.77;2.50;;;;;;;20.68;74.45;97932.47;5063275;28;20229;-68
2022/08/04 01:43:10;;;;;;;3.17;2.87;;;;;;;20.58;75.17;97930.00;5065742;28;20235;-68
2022/08/04 01:45:40;;;;;;;2.90;2.60;;;;;;;20.58;75.49;97932.66;5066883;28;20211;-69
2022/08/04 01:48:07;;;;;;;3.00;2.80;;;;;;;20.59;75.60;97928.97;5053910;28;20215;-68
2022/08/04 01:50:36;;;;;;;3.20;2.90;;;;;;;20.53;76.05;97924.28;5063043;28;20587;-68
2022/08/04 01:53:04;;;;;;;3.33;3.03;;;;;;;20.52;76.27;97928.00;5065771;28;20211;-68
2022/08/04 01:55:30;;;;;;;3.23;2.93;;;;;;;20.49;76.81;97933.69;5068321;28;20212;-68
2022/08/04 01:58:00;;;;;;;3.67;3.10;;;;;;;20.52;77.03;97930.69;5062839;28;20238;-68
2022/08/04 02:00:28;;;;;;;4.53;3.30;;;;;;;20.50;77.37;97929.19;5062547;28;20208;-70
2022/08/04 02:02:57;;;;;;;3.30;2.80;;;;;;;20.43;77.55;97930.88;5065932;28;20246;-69
2022/08/04 02:05:26;;;;;;;3.00;2.80;;;;;;;20.39;78.00;97935.75;5064368;28;20220;-69
2022/08/04 02:08:10;;;;;;;3.60;2.73;;;;;;;20.31;78.61;97929.56;5062559;28;20683;-68
2022/08/04 02:10:53;;;;;;;3.23;2.93;;;;;;;20.25;78.98;97925.69;5064539;28;20215;-68
2022/08/04 02:13:26;;;;;;;2.83;2.60;;;;;;;20.24;78.71;97934.75;5065398;28;20230;-68
2022/08/04 02:16:01;;;;;;;2.60;2.30;;;;;;;20.26;78.29;97931.91;5062368;28;20208;-68
2022/08/04 02:18:32;;;;;;;2.80;2.60;;;;;;;20.25;78.18;97930.25;5064528;28;20211;-68
2022/08/04 02:21:00;;;;;;;3.30;2.83;;;;;;;20.27;77.95;97921.03;5066297;28;20304;-68
2022/08/04 02:23:31;;;;;;;2.67;2.47;;;;;;;20.30;77.66;97920.66;5062548;28;20224;-68
2022/08/04 02:26:00;;;;;;;3.40;2.53;;;;;;;20.32;77.38;97915.97;5062454;28;20219;-69
2022/08/04 02:28:33;;;;;;;2.60;2.40;;;;;;;20.32;77.14;97915.97;5065379;28;20223;-68
2022/08/04 02:31:14;;;;;;;4.37;2.83;;;;;;;20.32;77.13;97912.44;5063439;28;20268;-68
2022/08/04 02:33:43;;;;;;;2.83;2.47;;;;;;;20.32;77.04;97909.75;5062030;28;20278;-69
2022/08/04 02:36:14;;;;;;;3.90;2.83;;;;;;;20.33;77.12;97919.47;5063534;28;20219;-68
2022/08/04 02:38:53;;;;;;;3.53;2.90;;;;;;;20.32;77.09;97915.97;5063187;28;20207;-68
2022/08/04 02:41:22;;;;;;;2.70;2.50;;;;;;;20.29;77.29;97908.25;5054218;28;20215;-68
2022/08/04 02:43:49;;;;;;;3.90;2.40;;;;;;;20.31;77.31;97906.22;5062093;28;20212;-68
2022/08/04 02:46:18;;;;;;;4.73;2.90;;;;;;;20.33;77.08;97906.91;5065734;28;20219;-68
2022/08/04 02:48:47;;;;;;;2.97;2.67;;;;;;;20.31;77.27;97902.72;5064268;28;20215;-68
2022/08/04 02:51:15;;;;;;;3.17;2.60;;;;;;;20.30;77.31;97901.88;5061964;28;20286;-68
2022/08/04 02:53:43;;;;;;;2.90;2.70;;;;;;;20.29;77.79;97905.56;5062083;28;20727;-68
2022/08/04 02:56:14;;;;;;;2.87;2.63;;;;;;;20.27;78.09;97907.59;5065711;28;20233;-68
2022/08/04 02:58:45;;;;;;;3.27;2.97;;;;;;;20.26;78.06;97903.25;5062167;28;20580;-68
2022/08/04 03:01:11;;;;;;;2.67;2.47;;;;;;;20.21;78.51;97902.91;5061376;28;20223;-68
2022/08/04 03:03:44;;;;;;;3.20;3.00;;;;;;;20.18;78.79;97911.28;5062744;28;20227;-68
2022/08/04 03:06:42;;;;;;;3.43;2.97;;;;;;;20.13;79.35;97907.47;5065432;28;20222;-68
2022/08/04 03:09:36;;;;;;;3.17;2.80;;;;;;;20.06;79.64;97904.59;5043435;28;20228;-68
2022/08/04 03:12:33;;;;;;;3.03;2.60;;;;;;;19.99;80.36;97906.25;5055425;28;20211;-68
2022/08/04 03:15:34;;;;;;;4.03;3.00;;;;;;;19.93;80.78;97903.44;5055589;28;20216;-68
2022/08/04 03:18:31;;;;;;;3.03;2.80;;;;;;;19.91;81.08;97903.59;5037098;28;20211;-68
2022/08/04 03:21:22;;;;;;;3.17;2.87;;;;;;;19.88;81.21;97905.78;5055558;28;20219;-68
2022/08/04 03:24:35;;;;;;;4.10;2.90;;;;;;;19.86;81.85;97908.63;5052581;28;20273;-68
2022/08/04 03:27:37;;;;;;;5.47;3.13;;;;;;;19.87;82.05;97906.81;5057199;28;20223;-68
2022/08/04 03:30:10;;;;;;;5.50;3.33;;;;;;;19.93;81.63;97917.69;4984273;28;20216;-68
2022/08/04 03:33:03;;;;;;;3.67;3.10;;;;;;;19.96;81.37;97920.03;5061202;28;20212;-68
2022/08/04 03:35:59;;;;;;;3.50;3.20;;;;;;;19.95;81.39;97918.38;5052268;28;20215;-68
2022/08/04 03:38:56;;;;;;;4.30;3.17;;;;;;;19.94;81.60;97921.22;5053492;28;20234;-68
2022/08/04 03:41:44;;;;;;;3.40;3.10;;;;;;;20.02;81.76;97927.41;5051577;28;20211;-68
2022/08/04 03:44:36;;;;;;;3.53;3.23;;;;;;;20.02;81.75;97919.34;5052425;28;20219;-68
2022/08/04 03:47:26;;;;;;;3.90;3.13;;;;;;;19.96;82.39;97925.41;5063025;28;20208;-68
2022/08/04 03:50:18;;;;;;;3.90;3.33;;;;;;;19.97;82.82;97924.38;5060105;28;20218;-68
2022/08/04 03:53:07;;;;;;;3.73;3.37;;;;;;;19.90;83.15;97923.41;5061366;28;20216;-69
2022/08/04 03:56:01;;;;;;;3.93;3.40;;;;;;;19.81;83.70;97918.19;5063366;28;20700;-68
2022/08/04 03:59:02;;;;;;;4.93;3.63;;;;;;;19.76;83.81;97915.19;5053026;28;20254;-68
2022/08/04 04:01:52;;;;;;;4.03;3.47;;;;;;;19.71;84.58;97920.22;5057337;28;20218;-68
2022/08/04 04:05:00;;;;;;;4.20;3.40;;;;;;;19.64;84.80;97920.03;5060320;28;20219;-67
2022/08/04 04:07:54;;;;;;;4.20;3.50;;;;;;;19.61;85.09;97920.38;5058157;28;20211;-68
2022/08/04 04:10:57;;;;;;;4.47;4.07;;;;;;;19.57;85.53;97912.84;5060113;28;20223;-67
2022/08/04 04:13:44;;;;;;;5.90;4.10;;;;;;;19.54;86.39;97918.53;5060262;28;20668;-68
2022/08/04 04:16:32;;;;;;;5.20;4.23;;;;;;;19.56;86.01;97912.00;5059010;28;20557;-68
2022/08/04 04:19:22;;;;;;;4.17;3.73;;;;;;;19.61;86.29;97928.41;5055418;28;20262;-68
2022/08/04 04:22:03;;;;;;;5.57;3.97;;;;;;;19.63;86.16;97917.53;5053691;28;20228;-68
2022/08/04 04:25:01;;;;;;;5.37;4.20;;;;;;;19.60;86.36;97918.69;5063514;28;20233;-68
2022/08/04 04:27:39;;;;;;;4.93;4.07;;;;;;;19.61;86.48;97914.16;5051529;28;20226;-68
2022/08/04 04:30:08;;;;;;;4.87;4.40;;;;;;;19.67;86.37;97906.31;5060805;28;20672;-68
2022/08/04 04:33:06;;;;;;;5.07;4.00;;;;;;;19.75;85.63;97913.50;5063498;28;20222;-68
2022/08/04 04:35:38;;;;;;;4.83;4.30;;;;;;;19.80;85.23;97914.66;5052589;28;20615;-68
2022/08/04 04:38:34;;;;;;;4.40;3.97;;;;;;;19.89;84.42;97916.34;5061448;28;20622;-68
2022/08/04 04:41:16;;;;;;;6.57;4.00;;;;;;;19.98;83.58;97915.31;5054325;28;20226;-68
2022/08/04 04:44:20;;;;;;;6.83;3.77;;;;;;;20.05;82.80;97910.94;5050233;28;20228;-67
2022/08/04 04:46:55;;;;;;;4.17;3.77;;;;;;;20.12;82.60;97913.84;5035923;28;20218;-70
2022/08/04 04:49:31;;;;;;;4.97;3.63;;;;;;;20.19;82.19;97922.88;5058598;28;20215;-67
2022/08/04 04:52:09;;;;;;;3.97;3.53;;;;;;;20.26;81.65;97919.34;5060992;28;20215;-70
2022/08/04 04:54:43;;;;;;;5.50;3.40;;;;;;;20.33;81.49;97925.69;5061213;28;20305;-68
2022/08/04 04:57:14;;;;;;;4.00;3.30;;;;;;;20.44;80.95;97924.50;5058383;28;20212;-68
2022/08/04 04:59:48;;;;;;;4.57;3.30;;;;;;;20.57;80.67;97925.63;5059980;28;20222;-68
2022/08/04 05:02:43;;;;;;;3.50;3.20;;;;;;;20.68;80.29;97927.09;5062256;28;20238;-68
2022/08/04 05:05:30;;;;;;;3.40;3.00;;;;;;;20.84;79.52;97925.19;5052578;28;20219;-68
2022/08/04 05:08:36;;;;;;;4.83;3.20;;;;;;;21.00;78.84;97933.22;5049624;28;20641;-68
2022/08/04 05:11:16;;;;;;;5.33;3.90;;;;;;;21.20;77.46;97928.22;5048198;28;20294;-68
2022/08/04 05:13:45;;;;;;;3.57;3.23;;;;;;;21.36;76.24;97934.34;5047908;28;20222;-68
2022/08/04 05:16:17;;;;;;;6.40;4.13;;;;;;;21.52;75.59;97934.22;5061051;28;20219;-68
2022/08/04 05:18:49;;;;;;;4.20;3.37;;;;;;;21.66;75.29;97930.78;5058225;28;20216;-69
2022/08/04 05:21:33;;;;;;;3.50;3.20;;;;;;;21.75;75.34;97935.09;5063937;28;20243;-68
2022/08/04 05:24:04;;;;;;;4.40;3.20;;;;;;;21.89;75.44;97931.59;5060721;28;20254;-68
2022/08/04 05:26:35;;;;;;;3.63;3.23;;;;;;;22.02;74.71;97936.38;5058023;28;20226;-69
2022/08/04 05:29:07;;;;;;;6.00;3.40;;;;;;;22.17;74.27;97932.72;5058293;28;20222;-69
2022/08/04 05:31:37;;;;;;;3.40;3.10;;;;;;;22.34;73.22;97936.91;5061927;28;20219;-69
2022/08/04 05:34:09;;;;;;;3.57;2.97;;;;;;;22.50;71.94;97928.69;5059715;28;20215;-69
2022/08/04 05:36:41;;;;;;;3.50;3.17;;;;;;;22.83;71.03;97932.69;5056368;28;20219;-68
2022/08/04 05:39:14;;;;;;;4.17;3.20;;;;;;;23.66;67.52;97933.06;5060644;28;20579;-68
2022/08/04 05:41:43;;;;;;;3.73;3.13;;;;;;;24.70;62.23;97937.50;5061959;28;20215;-68
2022/08/04 05:44:10;;;;;;;2.93;2.70;;;;;;;25.63;58.74;97929.59;5058233;28;20251;-68
2022/08/04 05:46:37;;;;;;;3.43;2.50;;;;;;;26.43;55.71;97931.16;5058186;28;20212;-69
2022/08/04 05:49:04;;;;;;;2.70;2.23;;;;;;;27.17;52.89;97937.91;5061302;28;20677;-68
2022/08/04 05:51:31;;;;;;;2.83;2.53;;;;;;;27.87;50.91;97941.31;5061599;28;20270;-68
2022/08/04 05:54:02;;;;;;;3.85;2.45;;;;;;;28.45;48.54;97936.50;5057832;28;20212;-68
2022/08/04 05:56:31;;;;;;;5.60;2.50;;;;;;;28.95;47.71;97940.84;5058046;28;20219;-68
2022/08/04 05:58:59;;;;;;;3.40;2.63;;;;;;;29.40;44.95;97936.75;5047391;28;20220;-68
2022/08/04 06:01:28;;;;;;;2.67;2.40;;;;;;;29.75;44.76;97943.19;5060787;28;20208;-70
2022/08/04 06:03:56;;;;;;;3.15;2.78;;;;;;;30.09;43.10;97945.25;5056335;28;20232;-69
2022/08/04 06:06:23;;;;;;;2.92;2.55;;;;;;;30.32;43.08;97937.13;5057943;28;20662;-68
2022/08/04 06:08:50;;;;;;;4.93;2.53;;;;;;;30.64;42.51;97941.19;5061602;28;20220;-69
2022/08/04 06:11:19;;;;;;;3.67;2.30;;;;;;;30.93;41.16;97932.88;5062374;28;20223;-69
2022/08/04 06:13:53;;;;;;;2.53;2.30;;;;;;;31.18;40.98;97946.28;5061174;28;20222;-69
2022/08/04 06:16:23;;;;;;;3.88;2.42;;;;;;;31.39;40.83;97942.91;5062409;28;20216;-69
2022/08/04 06:18:53;;;;;;;2.53;2.33;;;;;;;31.60;39.53;97945.00;5065204;28;20215;-69
2022/08/04 06:21:23;;;;;;;3.03;2.47;;;;;;;31.86;39.55;97949.91;5062659;28;20215;-70
2022/08/04 06:23:52;;;;;;;2.85;2.25;;;;;;;32.14;38.87;97947.16;5060999;28;20724;-69
2022/08/04 06:26:21;;;;;;;2.80;2.25;;;;;;;32.23;38.55;97948.38;5063892;28;20216;-69
2022/08/04 06:28:50;;;;;;;2.72;2.20;;;;;;;32.37;38.41;97955.22;5063338;28;20218;-69
2022/08/04 06:31:31;;;;;;;2.95;2.05;;;;;;;32.46;38.19;97951.00;5061160;28;20226;-69
2022/08/04 06:34:01;;;;;;;2.67;2.20;;;;;;;32.59;38.45;97945.19;5061163;28;20251;-70
2022/08/04 06:36:28;;;;;;;5.47;2.45;;;;;;;32.71;37.98;97954.16;5064410;28;20689;-69
2022/08/04 06:38:56;;;;;;;2.50;2.13;;;;;;;32.65;38.18;97949.66;5060263;28;20215;-70
2022/08/04 06:41:24;;;;;;;2.72;2.40;;;;;;;32.71;38.04;97954.16;5060953;28;20220;-71
2022/08/04 06:43:52;;;;;;;2.63;2.20;;;;;;;32.72;37.39;97953.06;5061584;28;20239;-71
2022/08/04 06:46:19;;;;;;;2.60;1.85;;;;;;;32.59;37.51;97951.50;5064657;28;20215;-70
2022/08/04 06:48:46;;;;;;;3.03;2.00;;;;;;;32.19;38.55;97949.94;5062504;28;20215;-69
2022/08/04 06:51:14;;;;;;;3.50;2.00;;;;;;;31.46;39.62;97951.78;5060639;28;20222;-70
2022/08/04 06:53:40;;;;;;;2.33;2.13;;;;;;;30.27;41.75;97956.06;5061463;28;20226;-69
2022/08/04 06:56:09;;;;;;;3.53;2.13;;;;;;;29.22;44.24;97947.66;5062631;28;20220;-69
2022/08/04 06:58:38;;;;;;;2.78;2.38;;;;;;;28.58;45.63;97952.69;5062582;28;20207;-70
2022/08/04 07:01:05;;;;;;;2.72;2.15;;;;;;;28.12;46.71;97950.34;5060570;28;20212;-70
2022/08/04 07:03:32;;;;;;;2.30;2.03;;;;;;;27.83;47.30;97952.84;5061427;28;20332;-69
2022/08/04 07:06:00;;;;;;;2.78;2.15;;;;;;;27.65;48.42;97958.16;5064227;28;20217;-70
2022/08/04 07:08:27;;;;;;;2.30;2.15;;;;;;;27.53;48.32;97949.84;5062216;28;20215;-69
2022/08/04 07:10:54;;;;;;;4.45;2.22;;;;;;;27.49;49.24;97951.34;5060587;28;20223;-69
2022/08/04 07:13:23;;;;;;;3.33;2.20;;;;;;;27.51;49.76;97949.22;5061048;28;20302;-69
2022/08/04 07:15:51;;;;;;;3.38;2.25;;;;;;;27.52;49.47;97947.34;5064019;28;20208;-70
2022/08/04 07:18:18;;;;;;;2.05;1.92;;;;;;;27.48;49.46;97949.69;5061360;28;20219;-70
2022/08/04 07:20:46;;;;;;;2.67;1.85;;;;;;;27.57;49.49;97955.69;5060106;28;20234;-70
2022/08/04 07:23:16;;;;;;;2.30;2.10;;;;;;;27.60;48.99;97944.38;5057959;28;20250;-70
2022/08/04 07:25:44;;;;;;;3.45;2.38;;;;;;;27.68;49.46;97941.41;5063884;28;20219;-70
2022/08/04 07:28:10;;;;;;;2.58;2.10;;;;;;;27.72;49.49;97942.63;5061127;28;20218;-70
2022/08/04 07:30:39;;;;;;;2.90;2.20;;;;;;;27.80;49.45;97945.13;5059631;28;20674;-70
2022/08/04 07:33:08;;;;;;;2.58;1.85;;;;;;;27.89;49.43;97938.38;5061152;28;20220;-70
2022/08/04 07:35:34;;;;;;;3.15;2.05;;;;;;;27.96;49.00;97945.44;5063580;28;20599;-70
2022/08/04 07:38:01;;;;;;;2.30;2.10;;;;;;;28.03;48.61;97946.22;5060718;28;20211;-70
2022/08/04 07:40:28;;;;;;;4.18;1.95;;;;;;;28.16;48.86;97939.84;5059698;28;20208;-70
2022/08/04 07:42:55;;;;;;;2.63;2.15;;;;;;;28.28;48.43;97943.53;5060760;28;20246;-70
2022/08/04 07:45:23;;;;;;;2.80;2.00;;;;;;;28.38;48.35;97938.44;5063079;28;20212;-70
2022/08/04 07:47:50;;;;;;;3.42;2.20;;;;;;;28.50;47.68;97942.09;5060796;28;20227;-70
2022/08/04 07:50:19;;;;;;;2.28;2.10;;;;;;;28.59;47.19;97940.75;5058110;28;20583;-70
2022/08/04 07:52:46;;;;;;;3.42;2.30;;;;;;;28.64;47.14;97941.78;5060713;28;20722;-70
2022/08/04 07:55:13;;;;;;;2.20;2.00;;;;;;;28.67;47.20;97943.22;5063189;28;20238;-70
2022/08/04 07:57:40;;;;;;;2.08;1.88;;;;;;;28.78;46.80;97937.00;5054603;28;20219;-70
2022/08/04 08:00:08;;;;;;;3.40;2.20;;;;;;;28.94;46.41;97934.53;5059419;28;20583;-70
2022/08/04 08:02:36;;;;;;;2.53;2.33;;;;;;;29.05;46.36;97933.00;5060582;28;20295;-70
2022/08/04 08:05:04;;;;;;;1.80;1.70;;;;;;;29.19;44.21;97932.59;5063047;28;20555;-70
2022/08/04 08:07:32;;;;;;;2.22;2.03;;;;;;;29.27;44.75;97923.28;5060390;28;20212;-70
2022/08/04 08:09:58;;;;;;;2.03;1.83;;;;;;;29.34;44.78;97930.31;5058932;28;20512;-70
2022/08/04 08:12:26;;;;;;;3.15;2.00;;;;;;;29.44;44.59;97929.75;5060390;28;20208;-70
2022/08/04 08:14:52;;;;;;;2.33;2.05;;;;;;;29.48;43.20;97922.81;5062592;28;20234;-70
2022/08/04 08:17:19;;;;;;;2.08;1.90;;;;;;;29.63;42.75;97934.16;5059263;28;20289;-70
2022/08/04 08:19:45;;;;;;;2.03;1.85;;;;;;;29.73;43.27;97923.53;5059179;28;20324;-70
2022/08/04 08:22:12;;;;;;;2.28;1.92;;;;;;;29.83;42.37;97932.00;5059890;28;20244;-69
2022/08/04 08:24:40;;;;;;;2.13;2.03;;;;;;;29.96;42.40;97926.34;5062376;28;20234;-69
2022/08/04 08:27:07;;;;;;;3.58;2.08;;;;;;;30.12;42.95;97923.78;5061011;28;20222;-70
2022/08/04 08:29:35;;;;;;;1.90;1.77;;;;;;;30.21;42.19;97925.09;5058556;28;20212;-69
2022/08/04 08:32:02;;;;;;;2.33;1.63;;;;;;;30.36;42.21;97914.59;5059437;28;20239;-69
2022/08/04 08:34:30;;;;;;;1.70;1.60;;;;;;;30.51;42.41;97917.66;5062289;28;20215;-69
2022/08/04 08:37:02;;;;;;;2.90;1.90;;;;;;;30.61;41.27;97915.19;5060268;28;20215;-69
2022/08/04 08:39:35;;;;;;;2.63;1.83;;;;;;;30.75;41.25;97919.34;5055653;28;20211;-69
2022/08/04 08:42:37;;;;;;;1.85;1.75;;;;;;;30.93;41.58;97921.13;5058950;28;20208;-70
2022/08/04 08:45:29;;;;;;;2.20;2.00;;;;;;;31.13;41.11;97921.56;5049261;28;20241;-70
2022/08/04 08:48:11;;;;;;;2.03;1.80;;;;;;;31.18;40.44;97921.72;5060529;28;20220;-69
2022/08/04 08:51:02;;;;;;;2.10;1.85;;;;;;;31.29;39.73;97918.13;5060653;28;20226;-69
2022/08/04 08:53:49;;;;;;;1.80;1.70;;;;;;;31.31;39.81;97924.16;5058179;28;20224;-69
2022/08/04 08:56:32;;;;;;;2.53;1.92;;;;;;;31.39;39.92;97926.50;5052958;28;20485;-69
2022/08/04 08:59:26;;;;;;;1.90;1.80;;;;;;;31.48;39.58;97919.59;5050845;28;20569;-70
2022/08/04 09:02:14;;;;;;;4.55;1.88;;;;;;;31.61;39.63;97925.59;5047683;28;20211;-69
2022/08/04 09:05:08;;;;;;;3.90;1.85;;;;;;;31.76;39.41;97925.09;5058436;28;20588;-69
2022/08/04 09:07:53;;;;;;;3.03;2.03;;;;;;;31.79;39.23;97922.69;5055652;28;20212;-69
2022/08/04 09:10:24;;;;;;;2.60;2.20;;;;;;;31.87;38.73;97924.22;5058952;28;20226;-70
2022/08/04 09:12:56;;;;;;;1.95;1.83;;;;;;;31.99;38.89;97922.25;5054142;28;20220;-69
2022/08/04 09:15:33;;;;;;;2.58;1.95;;;;;;;32.04;37.69;97925.06;5059573;28;20692;-69
2022/08/04 09:18:05;;;;;;;2.30;2.10;;;;;;;32.16;38.35;97925.84;5062061;28;20211;-69
2022/08/04 09:20:37;;;;;;;2.20;2.00;;;;;;;32.22;38.26;97927.59;5049800;28;20216;-70
2022/08/04 09:23:20;;;;;;;3.05;2.05;;;;;;;32.32;37.93;97917.66;5058230;28;20239;-68
2022/08/04 09:25:53;;;;;;;2.30;2.10;;;;;;;32.35;37.69;97921.81;5061659;28;20211;-71
2022/08/04 09:28:23;;;;;;;2.67;2.10;;;;;;;32.32;36.56;97925.03;5059510;28;20215;-68
2022/08/04 09:30:56;;;;;;;3.35;2.05;;;;;;;32.31;37.14;97920.66;5058190;28;20219;-68
2022/08/04 09:33:30;;;;;;;2.40;2.00;;;;;;;32.42;38.13;97927.94;5048289;28;20565;-70
2022/08/04 09:36:01;;;;;;;2.22;2.03;;;;;;;32.54;37.81;97920.47;5058202;28;20510;-70
2022/08/04 09:38:35;;;;;;;2.45;2.10;;;;;;;32.61;37.92;97921.13;5058054;28;20262;-70
2022/08/04 09:41:10;;;;;;;2.13;2.03;;;;;;;32.70;37.32;97925.94;5060709;28;20557;-70
2022/08/04 09:43:49;;;;;;;2.20;2.00;;;;;;;32.76;36.26;97924.16;5061434;28;20243;-70
2022/08/04 09:46:22;;;;;;;2.97;2.10;;;;;;;32.84;36.41;97915.50;5059913;28;20211;-70
2022/08/04 09:48:54;;;;;;;2.10;1.90;;;;;;;32.91;37.16;97916.13;5063853;28;20215;-71
2022/08/04 09:51:42;;;;;;;3.53;2.10;;;;;;;33.08;35.84;97911.44;5065788;28;20215;-71
2022/08/04 09:54:14;;;;;;;2.55;2.10;;;;;;;33.17;36.50;97912.66;5055151;28;20216;-69
2022/08/04 09:56:48;;;;;;;2.20;2.03;;;;;;;33.30;36.20;97915.88;5063221;28;20220;-69
2022/08/04 09:59:23;;;;;;;3.55;2.28;;;;;;;33.24;34.37;97910.59;5065350;28;20211;-71
2022/08/04 10:01:56;;;;;;;2.28;2.10;;;;;;;33.28;35.44;97907.09;5053488;28;20211;-72
2022/08/04 10:04:28;;;;;;;3.45;2.00;;;;;;;33.40;34.95;97898.72;5060166;28;20243;-70
2022/08/04 10:07:29;;;;;;;2.60;2.13;;;;;;;33.42;34.91;97896.59;5065492;28;20269;-69
2022/08/04 10:10:16;;;;;;;1.95;1.83;;;;;;;33.54;32.77;97894.53;5055480;28;20208;-69
2022/08/04 10:13:03;;;;;;;2.85;2.03;;;;;;;33.53;34.55;97890.97;5051713;28;20207;-69
2022/08/04 10:15:36;;;;;;;2.08;1.80;;;;;;;33.62;35.35;97888.59;5061637;28;20225;-70
2022/08/04 10:18:18;;;;;;;2.47;2.28;;;;;;;33.70;34.47;97888.13;5061410;28;20216;-70
2022/08/04 10:21:05;;;;;;;2.53;1.95;;;;;;;33.73;34.20;97888.41;5054238;28;20576;-70
2022/08/04 10:23:44;;;;;;;2.00;1.90;;;;;;;33.84;34.56;97883.91;5053218;28;20258;-70
2022/08/04 10:26:24;;;;;;;2.17;2.08;;;;;;;33.89;34.05;97884.78;5062555;28;20250;-70
2022/08/04 10:28:55;;;;;;;2.38;2.17;;;;;;;33.90;33.55;97888.34;5061811;28;20215;-70
2022/08/04 10:31:27;;;;;;;2.78;2.15;;;;;;;34.05;33.58;97875.59;5059395;28;20624;-70
2022/08/04 10:34:03;;;;;;;2.10;2.00;;;;;;;34.15;33.03;97872.16;5061671;28;20212;-70
2022/08/04 10:36:40;;;;;;;2.70;2.22;;;;;;;34.08;32.80;97871.50;5064931;28;20226;-70
2022/08/04 10:39:12;;;;;;;2.20;2.00;;;;;;;34.12;33.96;97870.75;5049999;28;20216;-70
2022/08/04 10:41:46;;;;;;;3.03;1.90;;;;;;;34.37;33.47;97867.41;5060842;28;20669;-70
2022/08/04 10:44:23;;;;;;;2.10;1.90;;;;;;;34.42;33.42;97861.94;5051594;28;20249;-70
2022/08/04 10:46:52;;;;;;;2.20;2.08;;;;;;;34.46;32.62;97872.13;5060275;28;21975;-70
2022/08/04 10:49:24;;;;;;;4.15;2.10;;;;;;;34.53;32.72;97869.97;5060254;28;20216;-70
2022/08/04 10:51:54;;;;;;;3.15;2.13;;;;;;;34.60;33.10;97872.50;5063060;28;20212;-70
2022/08/04 10:54:27;;;;;;;2.00;1.77;;;;;;;34.72;32.11;97859.41;5064495;28;20219;-70
2022/08/04 10:56:59;;;;;;;2.08;1.65;;;;;;;34.78;31.34;97864.69;5050746;28;20243;-70
2022/08/04 10:59:33;;;;;;;2.10;1.90;;;;;;;34.78;32.08;97858.38;5060666;28;20219;-70
2022/08/04 11:02:11;;;;;;;2.00;1.80;;;;;;;34.84;31.65;97860.88;5064361;28;20218;-70
2022/08/04 11:04:44;;;;;;;1.40;1.30;;;;;;;34.80;30.40;97865.25;5060378;28;20607;-71
2022/08/04 11:07:12;;;;;;;1.50;1.40;;;;;;;34.89;30.05;97857.34;5060792;28;20224;-70
2022/08/04 11:09:40;;;;;;;2.45;1.40;;;;;;;34.65;29.27;97859.63;5063660;28;20219;-70
2022/08/04 11:12:14;;;;;;;1.90;1.70;;;;;;;34.60;30.11;97845.88;5063673;28;20215;-72
2022/08/04 11:14:46;;;;;;;2.05;1.70;;;;;;;34.68;30.78;97858.28;5060336;28;20591;-70
2022/08/04 11:17:19;;;;;;;2.45;1.77;;;;;;;34.77;31.31;97854.78;5060806;28;20243;-70
2022/08/04 11:19:52;;;;;;;1.92;1.80;;;;;;;34.90;29.99;97859.81;5063782;28;20215;-70
2022/08/04 11:22:25;;;;;;;1.75;1.65;;;;;;;34.79;29.38;97860.88;5060538;28;20639;-71
2022/08/04 11:24:55;;;;;;;2.15;1.60;;;;;;;34.58;30.11;97858.22;5058269;28;20224;-70
2022/08/04 11:27:28;;;;;;;1.55;1.45;;;;;;;34.53;29.94;97859.00;5063593;28;20211;-70
2022/08/04 11:30:03;;;;;;;1.92;1.80;;;;;;;34.60;30.22;97864.28;5062558;28;20219;-70
2022/08/04 11:32:37;;;;;;;2.20;1.70;;;;;;;34.73;29.98;97855.56;5059521;28;20211;-70
2022/08/04 11:35:09;;;;;;;1.65;1.55;;;;;;;34.81;30.52;97863.31;5061990;28;20212;-70
2022/08/04 11:37:45;;;;;;;1.70;1.60;;;;;;;34.78;29.35;97856.44;5063539;28;20218;-70
2022/08/04 11:40:22;;;;;;;2.13;1.92;;;;;;;34.77;29.78;97862.22;5054303;28;20204;-70
2022/08/04 11:42:55;;;;;;;2.10;1.73;;;;;;;34.62;29.77;97851.09;5060561;28;20222;-70
2022/08/04 11:45:30;;;;;;;2.10;1.90;;;;;;;34.58;30.81;97859.03;5063153;28;20242;-70
2022/08/04 11:48:00;;;;;;;2.22;2.00;;;;;;;34.75;30.14;97864.38;5051043;28;20251;-70
2022/08/04 11:50:33;;;;;;;2.08;1.88;;;;;;;34.76;29.92;97866.06;5057771;28;20341;-70
2022/08/04 11:53:00;;;;;;;2.10;1.83;;;;;;;34.81;30.25;97846.84;5049366;28;20226;-70
2022/08/04 11:55:28;;;;;;;2.00;1.90;;;;;;;34.88;30.08;97855.66;5062265;28;20222;-71
2022/08/04 11:57:55;;;;;;;1.90;1.80;;;;;;;34.92;29.70;97854.03;5059418;28;20238;-71
2022/08/04 12:00:25;;;;;;;2.30;2.10;;;;;;;34.85;30.58;97843.31;5059046;28;20677;-70
2022/08/04 12:03:23;;;;;;;2.20;2.00;;;;;;;35.06;29.79;97852.47;5048741;28;20211;-70
2022/08/04 12:06:06;;;;;;;2.40;1.95;;;;;;;35.17;29.28;97845.91;5046723;28;20292;-71
2022/08/04 12:08:48;;;;;;;2.85;2.25;;;;;;;35.08;29.71;97842.84;5059048;28;20716;-72
2022/08/04 12:11:25;;;;;;;2.03;1.80;;;;;;;35.04;29.53;97843.66;5058787;28;20692;-71
2022/08/04 12:14:03;;;;;;;2.20;2.00;;;;;;;35.11;30.70;97844.25;5058446;28;20212;-71